Brooklyn, Illinois
Current Conditions -  °F | °C
As of 11:53 AM on Thursday 27 Nov 2014 (Local Time) from KCPS Reporting Station
Overcast Overcast  
Wind Chill: 24°   Ceiling: 2800
Heat Index: 33°   Visibility: 10mi
Dew Point: 24°   Wind: 12mph
Humidity: 70%   Direction: 340°NNW
Pressure: 30.47"   Gusts: NA
Location:  38.6276°N, 90.1494°W
Report Text: KCPS 271753Z 34010KT 10SM BKN028 OVC036 01/M04 A3047 RMK AO2 SLP321 T00061044 10006 21011 58006
Loading
Personal Weather Stations






























Interactive Weather Map New forecast layout! Learn more

10-Day Weather Forecast

Advertisements
Track Severe Weather on mobile